sensor_id;sensor_type;location;lat;lon;timestamp;P1;durP1;ratioP1;P2;durP2;ratioP2
77287;SDS011;66345;42.694;23.346;2024-03-08T00:01:00;5.13;;;1.90;;
77287;SDS011;66345;42.694;23.346;2024-03-08T00:03:26;6.97;;;1.77;;
77287;SDS011;66345;42.694;23.346;2024-03-08T00:05:52;5.10;;;1.53;;
77287;SDS011;66345;42.694;23.346;2024-03-08T00:08:17;3.75;;;1.38;;
77287;SDS011;66345;42.694;23.346;2024-03-08T00:10:43;3.10;;;1.17;;
77287;SDS011;66345;42.694;23.346;2024-03-08T00:13:08;5.15;;;1.40;;
77287;SDS011;66345;42.694;23.346;2024-03-08T00:15:34;3.73;;;1.10;;
77287;SDS011;66345;42.694;23.346;2024-03-08T00:18:00;5.40;;;1.57;;
77287;SDS011;66345;42.694;23.346;2024-03-08T00:20:25;3.80;;;1.13;;
77287;SDS011;66345;42.694;23.346;2024-03-08T00:22:51;3.20;;;1.10;;
77287;SDS011;66345;42.694;23.346;2024-03-08T00:25:16;3.37;;;1.10;;
77287;SDS011;66345;42.694;23.346;2024-03-08T00:27:42;3.65;;;0.90;;
77287;SDS011;66345;42.694;23.346;2024-03-08T00:30:08;3.30;;;0.80;;
77287;SDS011;66345;42.694;23.346;2024-03-08T00:32:34;3.22;;;1.00;;
77287;SDS011;66345;42.694;23.346;2024-03-08T00:34:59;2.63;;;0.60;;
77287;SDS011;66345;42.694;23.346;2024-03-08T00:37:25;2.88;;;0.82;;
77287;SDS011;66345;42.694;23.346;2024-03-08T00:39:50;3.27;;;0.77;;
77287;SDS011;66345;42.694;23.346;2024-03-08T00:42:17;2.67;;;0.80;;
77287;SDS011;66345;42.694;23.346;2024-03-08T00:44:43;2.87;;;0.67;;
77287;SDS011;66345;42.694;23.346;2024-03-08T00:47:08;3.05;;;0.80;;
77287;SDS011;66345;42.694;23.346;2024-03-08T00:49:34;2.53;;;0.70;;
77287;SDS011;66345;42.694;23.346;2024-03-08T00:52:01;2.22;;;0.60;;
77287;SDS011;66345;42.694;23.346;2024-03-08T00:54:27;2.53;;;0.77;;
77287;SDS011;66345;42.694;23.346;2024-03-08T00:56:52;3.43;;;0.70;;
77287;SDS011;66345;42.694;23.346;2024-03-08T00:59:18;2.47;;;0.70;;
77287;SDS011;66345;42.694;23.346;2024-03-08T01:01:43;2.38;;;0.77;;
77287;SDS011;66345;42.694;23.346;2024-03-08T01:04:09;2.73;;;0.70;;
77287;SDS011;66345;42.694;23.346;2024-03-08T01:06:36;3.30;;;0.90;;
77287;SDS011;66345;42.694;23.346;2024-03-08T01:09:21;3.00;;;0.90;;
77287;SDS011;66345;42.694;23.346;2024-03-08T01:11:51;3.53;;;0.93;;
77287;SDS011;66345;42.694;23.346;2024-03-08T01:14:19;3.95;;;0.90;;
77287;SDS011;66345;42.694;23.346;2024-03-08T01:16:47;2.67;;;0.80;;
77287;SDS011;66345;42.694;23.346;2024-03-08T01:19:13;3.42;;;1.10;;
77287;SDS011;66345;42.694;23.346;2024-03-08T01:21:39;2.73;;;0.80;;
77287;SDS011;66345;42.694;23.346;2024-03-08T01:24:04;2.60;;;0.80;;
77287;SDS011;66345;42.694;23.346;2024-03-08T01:26:30;3.80;;;0.93;;
77287;SDS011;66345;42.694;23.346;2024-03-08T01:28:56;3.33;;;0.90;;
77287;SDS011;66345;42.694;23.346;2024-03-08T01:31:21;4.13;;;1.08;;
77287;SDS011;66345;42.694;23.346;2024-03-08T01:33:47;3.70;;;0.90;;
77287;SDS011;66345;42.694;23.346;2024-03-08T01:36:13;3.13;;;1.10;;
77287;SDS011;66345;42.694;23.346;2024-03-08T01:38:42;3.50;;;0.87;;
77287;SDS011;66345;42.694;23.346;2024-03-08T01:41:07;3.25;;;1.17;;
77287;SDS011;66345;42.694;23.346;2024-03-08T01:43:34;2.90;;;0.90;;
77287;SDS011;66345;42.694;23.346;2024-03-08T01:45:59;3.00;;;1.10;;
77287;SDS011;66345;42.694;23.346;2024-03-08T01:48:29;4.15;;;1.02;;
77287;SDS011;66345;42.694;23.346;2024-03-08T01:50:56;3.15;;;1.00;;
77287;SDS011;66345;42.694;23.346;2024-03-08T01:53:23;3.00;;;0.88;;
77287;SDS011;66345;42.694;23.346;2024-03-08T01:55:50;3.55;;;1.15;;
77287;SDS011;66345;42.694;23.346;2024-03-08T01:58:19;3.00;;;0.97;;
77287;SDS011;66345;42.694;23.346;2024-03-08T02:00:47;3.88;;;1.27;;
77287;SDS011;66345;42.694;23.346;2024-03-08T02:03:16;4.00;;;1.13;;
77287;SDS011;66345;42.694;23.346;2024-03-08T02:05:42;4.10;;;1.20;;
77287;SDS011;66345;42.694;23.346;2024-03-08T02:08:08;2.87;;;1.10;;
77287;SDS011;66345;42.694;23.346;2024-03-08T02:10:39;5.22;;;1.08;;
77287;SDS011;66345;42.694;23.346;2024-03-08T02:13:09;3.15;;;1.00;;
77287;SDS011;66345;42.694;23.346;2024-03-08T02:18:16;3.13;;;1.20;;
77287;SDS011;66345;42.694;23.346;2024-03-08T02:20:42;4.22;;;1.27;;
77287;SDS011;66345;42.694;23.346;2024-03-08T02:23:08;2.65;;;1.00;;
77287;SDS011;66345;42.694;23.346;2024-03-08T02:25:34;3.00;;;1.10;;
77287;SDS011;66345;42.694;23.346;2024-03-08T02:28:00;3.72;;;1.20;;
77287;SDS011;66345;42.694;23.346;2024-03-08T02:30:26;2.73;;;0.80;;
77287;SDS011;66345;42.694;23.346;2024-03-08T02:32:54;4.00;;;1.10;;
77287;SDS011;66345;42.694;23.346;2024-03-08T02:35:20;2.97;;;1.00;;
77287;SDS011;66345;42.694;23.346;2024-03-08T02:37:46;2.83;;;0.87;;
77287;SDS011;66345;42.694;23.346;2024-03-08T02:40:13;3.38;;;0.90;;
77287;SDS011;66345;42.694;23.346;2024-03-08T02:42:39;2.70;;;0.80;;
77287;SDS011;66345;42.694;23.346;2024-03-08T02:45:05;3.50;;;0.90;;
77287;SDS011;66345;42.694;23.346;2024-03-08T02:47:31;2.60;;;0.73;;
77287;SDS011;66345;42.694;23.346;2024-03-08T02:49:57;3.15;;;0.60;;
77287;SDS011;66345;42.694;23.346;2024-03-08T02:52:22;2.90;;;0.70;;
77287;SDS011;66345;42.694;23.346;2024-03-08T02:54:48;2.50;;;0.57;;
77287;SDS011;66345;42.694;23.346;2024-03-08T02:57:14;3.15;;;0.60;;
77287;SDS011;66345;42.694;23.346;2024-03-08T02:59:40;3.70;;;1.27;;
77287;SDS011;66345;42.694;23.346;2024-03-08T03:02:07;3.10;;;0.80;;
77287;SDS011;66345;42.694;23.346;2024-03-08T03:04:32;2.40;;;0.63;;
77287;SDS011;66345;42.694;23.346;2024-03-08T03:06:59;2.60;;;0.63;;
77287;SDS011;66345;42.694;23.346;2024-03-08T03:09:25;2.63;;;0.57;;
77287;SDS011;66345;42.694;23.346;2024-03-08T03:11:55;2.50;;;0.65;;
77287;SDS011;66345;42.694;23.346;2024-03-08T03:14:21;2.90;;;0.63;;
77287;SDS011;66345;42.694;23.346;2024-03-08T03:16:47;2.87;;;0.77;;
77287;SDS011;66345;42.694;23.346;2024-03-08T03:19:13;2.55;;;0.70;;
77287;SDS011;66345;42.694;23.346;2024-03-08T03:21:40;3.63;;;1.10;;
77287;SDS011;66345;42.694;23.346;2024-03-08T03:24:08;4.03;;;0.80;;
77287;SDS011;66345;42.694;23.346;2024-03-08T03:26:40;2.70;;;0.90;;
77287;SDS011;66345;42.694;23.346;2024-03-08T03:29:06;3.00;;;0.60;;
77287;SDS011;66345;42.694;23.346;2024-03-08T03:31:33;2.80;;;0.70;;
77287;SDS011;66345;42.694;23.346;2024-03-08T03:33:59;2.72;;;0.80;;
77287;SDS011;66345;42.694;23.346;2024-03-08T03:36:27;2.60;;;0.70;;
77287;SDS011;66345;42.694;23.346;2024-03-08T03:38:54;2.72;;;0.77;;
77287;SDS011;66345;42.694;23.346;2024-03-08T03:41:30;2.92;;;0.70;;
77287;SDS011;66345;42.694;23.346;2024-03-08T03:43:56;2.60;;;0.82;;
77287;SDS011;66345;42.694;23.346;2024-03-08T03:46:21;2.87;;;0.90;;
77287;SDS011;66345;42.694;23.346;2024-03-08T03:48:47;2.90;;;0.80;;
77287;SDS011;66345;42.694;23.346;2024-03-08T03:51:12;2.60;;;0.60;;
77287;SDS011;66345;42.694;23.346;2024-03-08T03:53:40;3.30;;;0.80;;
77287;SDS011;66345;42.694;23.346;2024-03-08T03:56:07;3.03;;;1.00;;
77287;SDS011;66345;42.694;23.346;2024-03-08T03:58:32;3.47;;;1.00;;
77287;SDS011;66345;42.694;23.346;2024-03-08T04:00:58;3.78;;;1.00;;
77287;SDS011;66345;42.694;23.346;2024-03-08T04:03:23;2.70;;;0.80;;
77287;SDS011;66345;42.694;23.346;2024-03-08T04:05:49;3.00;;;0.80;;
77287;SDS011;66345;42.694;23.346;2024-03-08T04:08:14;3.03;;;0.80;;
77287;SDS011;66345;42.694;23.346;2024-03-08T04:10:41;3.10;;;0.70;;
77287;SDS011;66345;42.694;23.346;2024-03-08T04:13:07;3.90;;;1.05;;
77287;SDS011;66345;42.694;23.346;2024-03-08T04:15:34;4.55;;;1.10;;
77287;SDS011;66345;42.694;23.346;2024-03-08T04:18:00;3.43;;;1.10;;
77287;SDS011;66345;42.694;23.346;2024-03-08T04:20:26;3.67;;;0.88;;
77287;SDS011;66345;42.694;23.346;2024-03-08T04:22:51;3.40;;;1.00;;
77287;SDS011;66345;42.694;23.346;2024-03-08T04:25:18;3.78;;;1.00;;
77287;SDS011;66345;42.694;23.346;2024-03-08T04:27:45;3.00;;;0.90;;
77287;SDS011;66345;42.694;23.346;2024-03-08T04:30:12;3.22;;;1.10;;
77287;SDS011;66345;42.694;23.346;2024-03-08T04:32:38;3.23;;;1.10;;
77287;SDS011;66345;42.694;23.346;2024-03-08T04:35:03;4.13;;;1.42;;
77287;SDS011;66345;42.694;23.346;2024-03-08T04:37:29;4.87;;;1.60;;
77287;SDS011;66345;42.694;23.346;2024-03-08T04:39:55;4.75;;;1.70;;
77287;SDS011;66345;42.694;23.346;2024-03-08T04:42:20;3.90;;;1.53;;
77287;SDS011;66345;42.694;23.346;2024-03-08T04:44:46;4.82;;;2.00;;
77287;SDS011;66345;42.694;23.346;2024-03-08T04:47:12;4.17;;;2.00;;
77287;SDS011;66345;42.694;23.346;2024-03-08T04:49:37;5.55;;;1.83;;
77287;SDS011;66345;42.694;23.346;2024-03-08T04:52:03;3.37;;;1.20;;
77287;SDS011;66345;42.694;23.346;2024-03-08T04:54:29;4.40;;;1.48;;
77287;SDS011;66345;42.694;23.346;2024-03-08T04:56:55;3.73;;;1.47;;
77287;SDS011;66345;42.694;23.346;2024-03-08T04:59:21;4.10;;;1.33;;
77287;SDS011;66345;42.694;23.346;2024-03-08T05:01:47;4.40;;;1.40;;
77287;SDS011;66345;42.694;23.346;2024-03-08T05:04:13;4.68;;;1.50;;
77287;SDS011;66345;42.694;23.346;2024-03-08T05:06:39;4.17;;;1.53;;
77287;SDS011;66345;42.694;23.346;2024-03-08T05:09:04;3.65;;;1.48;;
77287;SDS011;66345;42.694;23.346;2024-03-08T05:11:48;4.47;;;1.45;;
77287;SDS011;66345;42.694;23.346;2024-03-08T05:14:15;4.13;;;1.43;;
77287;SDS011;66345;42.694;23.346;2024-03-08T05:16:47;5.10;;;2.10;;
77287;SDS011;66345;42.694;23.346;2024-03-08T05:19:14;4.70;;;1.70;;
77287;SDS011;66345;42.694;23.346;2024-03-08T05:21:43;4.18;;;1.55;;
77287;SDS011;66345;42.694;23.346;2024-03-08T05:24:13;4.45;;;1.70;;
77287;SDS011;66345;42.694;23.346;2024-03-08T05:26:39;4.47;;;1.50;;
77287;SDS011;66345;42.694;23.346;2024-03-08T05:29:05;4.47;;;1.73;;
77287;SDS011;66345;42.694;23.346;2024-03-08T05:31:31;5.93;;;2.10;;
77287;SDS011;66345;42.694;23.346;2024-03-08T05:34:23;5.85;;;2.15;;
77287;SDS011;66345;42.694;23.346;2024-03-08T05:36:49;4.80;;;2.10;;
77287;SDS011;66345;42.694;23.346;2024-03-08T05:39:15;5.87;;;2.13;;
77287;SDS011;66345;42.694;23.346;2024-03-08T05:41:42;5.65;;;2.50;;
77287;SDS011;66345;42.694;23.346;2024-03-08T05:44:09;4.93;;;2.17;;
77287;SDS011;66345;42.694;23.346;2024-03-08T05:46:35;6.18;;;2.20;;
77287;SDS011;66345;42.694;23.346;2024-03-08T05:49:02;5.47;;;2.28;;
77287;SDS011;66345;42.694;23.346;2024-03-08T05:51:31;6.93;;;2.67;;
77287;SDS011;66345;42.694;23.346;2024-03-08T05:54:03;6.07;;;2.60;;
77287;SDS011;66345;42.694;23.346;2024-03-08T05:56:33;7.03;;;2.72;;
77287;SDS011;66345;42.694;23.346;2024-03-08T05:58:58;6.70;;;2.60;;
77287;SDS011;66345;42.694;23.346;2024-03-08T06:01:24;6.23;;;3.00;;
77287;SDS011;66345;42.694;23.346;2024-03-08T06:03:51;6.07;;;2.92;;
77287;SDS011;66345;42.694;23.346;2024-03-08T06:06:20;7.57;;;3.30;;
77287;SDS011;66345;42.694;23.346;2024-03-08T06:08:46;6.77;;;2.97;;
77287;SDS011;66345;42.694;23.346;2024-03-08T06:11:14;5.82;;;2.20;;
77287;SDS011;66345;42.694;23.346;2024-03-08T06:13:40;6.07;;;2.38;;
77287;SDS011;66345;42.694;23.346;2024-03-08T06:16:05;5.38;;;2.30;;
77287;SDS011;66345;42.694;23.346;2024-03-08T06:18:36;5.63;;;2.83;;
77287;SDS011;66345;42.694;23.346;2024-03-08T06:21:02;5.82;;;2.60;;
77287;SDS011;66345;42.694;23.346;2024-03-08T06:23:31;5.80;;;2.70;;
77287;SDS011;66345;42.694;23.346;2024-03-08T06:26:06;6.97;;;2.65;;
77287;SDS011;66345;42.694;23.346;2024-03-08T06:28:34;8.48;;;2.55;;
77287;SDS011;66345;42.694;23.346;2024-03-08T06:31:00;6.77;;;2.80;;
77287;SDS011;66345;42.694;23.346;2024-03-08T06:33:27;7.35;;;3.03;;
77287;SDS011;66345;42.694;23.346;2024-03-08T06:35:53;5.47;;;2.40;;
77287;SDS011;66345;42.694;23.346;2024-03-08T06:38:22;8.18;;;2.60;;
77287;SDS011;66345;42.694;23.346;2024-03-08T06:40:51;8.77;;;3.25;;
77287;SDS011;66345;42.694;23.346;2024-03-08T06:43:19;7.10;;;2.60;;
77287;SDS011;66345;42.694;23.346;2024-03-08T06:45:45;7.03;;;2.70;;
77287;SDS011;66345;42.694;23.346;2024-03-08T06:48:16;7.05;;;3.00;;
77287;SDS011;66345;42.694;23.346;2024-03-08T06:50:46;8.32;;;3.15;;
77287;SDS011;66345;42.694;23.346;2024-03-08T06:53:12;6.20;;;2.55;;
77287;SDS011;66345;42.694;23.346;2024-03-08T06:55:39;5.60;;;2.20;;
77287;SDS011;66345;42.694;23.346;2024-03-08T06:58:04;18.55;;;8.35;;
77287;SDS011;66345;42.694;23.346;2024-03-08T07:00:31;7.35;;;2.90;;
77287;SDS011;66345;42.694;23.346;2024-03-08T07:02:57;5.82;;;2.75;;
77287;SDS011;66345;42.694;23.346;2024-03-08T07:05:26;8.63;;;3.20;;
77287;SDS011;66345;42.694;23.346;2024-03-08T07:07:52;7.15;;;2.42;;
77287;SDS011;66345;42.694;23.346;2024-03-08T07:10:19;7.53;;;3.30;;
77287;SDS011;66345;42.694;23.346;2024-03-08T07:12:51;6.03;;;2.65;;
77287;SDS011;66345;42.694;23.346;2024-03-08T07:15:18;7.65;;;2.42;;
77287;SDS011;66345;42.694;23.346;2024-03-08T07:17:45;6.43;;;2.90;;
77287;SDS011;66345;42.694;23.346;2024-03-08T07:20:11;6.55;;;2.92;;
77287;SDS011;66345;42.694;23.346;2024-03-08T07:22:38;6.28;;;2.55;;
77287;SDS011;66345;42.694;23.346;2024-03-08T07:25:07;6.93;;;2.75;;
77287;SDS011;66345;42.694;23.346;2024-03-08T07:27:33;6.53;;;3.00;;
77287;SDS011;66345;42.694;23.346;2024-03-08T07:30:01;7.15;;;2.92;;
77287;SDS011;66345;42.694;23.346;2024-03-08T07:32:30;6.88;;;3.10;;
77287;SDS011;66345;42.694;23.346;2024-03-08T07:34:56;6.28;;;2.80;;
77287;SDS011;66345;42.694;23.346;2024-03-08T07:37:22;7.90;;;3.07;;
77287;SDS011;66345;42.694;23.346;2024-03-08T07:39:48;6.53;;;2.92;;
77287;SDS011;66345;42.694;23.346;2024-03-08T07:42:14;7.33;;;3.43;;
77287;SDS011;66345;42.694;23.346;2024-03-08T07:44:39;7.88;;;2.97;;
77287;SDS011;66345;42.694;23.346;2024-03-08T07:47:05;8.17;;;3.70;;
77287;SDS011;66345;42.694;23.346;2024-03-08T07:49:34;7.97;;;3.22;;
77287;SDS011;66345;42.694;23.346;2024-03-08T07:52:00;6.80;;;2.45;;
77287;SDS011;66345;42.694;23.346;2024-03-08T07:54:25;5.87;;;2.30;;
77287;SDS011;66345;42.694;23.346;2024-03-08T07:56:51;7.00;;;2.50;;
77287;SDS011;66345;42.694;23.346;2024-03-08T07:59:17;6.55;;;2.72;;
77287;SDS011;66345;42.694;23.346;2024-03-08T08:01:44;7.50;;;2.72;;
77287;SDS011;66345;42.694;23.346;2024-03-08T08:04:09;6.50;;;2.80;;
77287;SDS011;66345;42.694;23.346;2024-03-08T08:06:40;6.75;;;2.25;;
77287;SDS011;66345;42.694;23.346;2024-03-08T08:09:08;4.47;;;1.98;;
77287;SDS011;66345;42.694;23.346;2024-03-08T08:11:42;5.30;;;2.10;;
77287;SDS011;66345;42.694;23.346;2024-03-08T08:14:10;5.28;;;1.80;;
77287;SDS011;66345;42.694;23.346;2024-03-08T08:16:36;4.80;;;1.80;;
77287;SDS011;66345;42.694;23.346;2024-03-08T08:19:03;8.13;;;2.20;;
77287;SDS011;66345;42.694;23.346;2024-03-08T08:21:35;8.25;;;1.60;;
77287;SDS011;66345;42.694;23.346;2024-03-08T08:24:04;4.20;;;1.70;;
77287;SDS011;66345;42.694;23.346;2024-03-08T08:26:30;9.93;;;2.28;;
77287;SDS011;66345;42.694;23.346;2024-03-08T08:28:55;10.18;;;3.20;;
77287;SDS011;66345;42.694;23.346;2024-03-08T08:31:21;7.80;;;4.00;;
77287;SDS011;66345;42.694;23.346;2024-03-08T08:33:47;8.63;;;2.85;;
77287;SDS011;66345;42.694;23.346;2024-03-08T08:36:15;5.90;;;2.60;;
77287;SDS011;66345;42.694;23.346;2024-03-08T08:38:40;5.70;;;2.38;;
77287;SDS011;66345;42.694;23.346;2024-03-08T08:41:09;8.25;;;3.33;;
77287;SDS011;66345;42.694;23.346;2024-03-08T08:43:36;6.83;;;2.40;;
77287;SDS011;66345;42.694;23.346;2024-03-08T08:46:01;5.55;;;2.95;;
77287;SDS011;66345;42.694;23.346;2024-03-08T08:48:27;6.63;;;2.57;;
77287;SDS011;66345;42.694;23.346;2024-03-08T08:50:55;4.30;;;2.00;;
77287;SDS011;66345;42.694;23.346;2024-03-08T08:53:21;6.15;;;1.92;;
77287;SDS011;66345;42.694;23.346;2024-03-08T08:55:47;6.00;;;2.00;;
77287;SDS011;66345;42.694;23.346;2024-03-08T08:58:12;5.30;;;1.93;;
77287;SDS011;66345;42.694;23.346;2024-03-08T09:00:39;4.40;;;1.88;;
77287;SDS011;66345;42.694;23.346;2024-03-08T09:03:05;5.15;;;2.03;;
77287;SDS011;66345;42.694;23.346;2024-03-08T09:05:32;4.90;;;2.03;;
77287;SDS011;66345;42.694;23.346;2024-03-08T09:07:59;5.30;;;1.80;;
77287;SDS011;66345;42.694;23.346;2024-03-08T09:10:25;6.05;;;2.13;;
77287;SDS011;66345;42.694;23.346;2024-03-08T09:12:50;3.75;;;1.70;;
77287;SDS011;66345;42.694;23.346;2024-03-08T09:15:16;6.90;;;2.57;;
77287;SDS011;66345;42.694;23.346;2024-03-08T09:17:42;4.82;;;2.10;;
77287;SDS011;66345;42.694;23.346;2024-03-08T09:20:09;4.22;;;1.90;;
77287;SDS011;66345;42.694;23.346;2024-03-08T09:22:39;3.80;;;1.70;;
77287;SDS011;66345;42.694;23.346;2024-03-08T09:25:05;4.30;;;1.70;;
77287;SDS011;66345;42.694;23.346;2024-03-08T09:27:32;4.43;;;2.38;;
77287;SDS011;66345;42.694;23.346;2024-03-08T09:29:59;3.55;;;1.80;;
77287;SDS011;66345;42.694;23.346;2024-03-08T09:32:24;3.77;;;1.73;;
77287;SDS011;66345;42.694;23.346;2024-03-08T09:34:51;3.80;;;2.17;;
77287;SDS011;66345;42.694;23.346;2024-03-08T09:37:17;4.40;;;2.60;;
77287;SDS011;66345;42.694;23.346;2024-03-08T09:39:43;5.40;;;3.20;;
77287;SDS011;66345;42.694;23.346;2024-03-08T09:42:09;4.90;;;3.10;;
77287;SDS011;66345;42.694;23.346;2024-03-08T09:44:39;4.88;;;2.78;;
77287;SDS011;66345;42.694;23.346;2024-03-08T09:47:09;4.47;;;2.00;;
77287;SDS011;66345;42.694;23.346;2024-03-08T09:49:39;4.55;;;2.58;;
77287;SDS011;66345;42.694;23.346;2024-03-08T09:52:05;4.80;;;2.17;;
77287;SDS011;66345;42.694;23.346;2024-03-08T09:54:32;4.07;;;2.00;;
77287;SDS011;66345;42.694;23.346;2024-03-08T09:56:58;4.75;;;2.22;;
77287;SDS011;66345;42.694;23.346;2024-03-08T09:59:24;4.43;;;2.30;;
77287;SDS011;66345;42.694;23.346;2024-03-08T10:01:52;5.45;;;2.38;;
77287;SDS011;66345;42.694;23.346;2024-03-08T10:04:21;5.47;;;2.40;;
77287;SDS011;66345;42.694;23.346;2024-03-08T10:06:47;3.73;;;1.73;;
77287;SDS011;66345;42.694;23.346;2024-03-08T10:09:13;7.20;;;1.88;;
77287;SDS011;66345;42.694;23.346;2024-03-08T10:11:42;4.40;;;1.85;;
77287;SDS011;66345;42.694;23.346;2024-03-08T10:14:09;5.88;;;2.20;;
77287;SDS011;66345;42.694;23.346;2024-03-08T10:16:35;6.40;;;2.05;;
77287;SDS011;66345;42.694;23.346;2024-03-08T10:19:01;5.00;;;1.90;;
77287;SDS011;66345;42.694;23.346;2024-03-08T10:21:28;4.18;;;1.85;;
77287;SDS011;66345;42.694;23.346;2024-03-08T10:23:53;8.37;;;1.90;;
77287;SDS011;66345;42.694;23.346;2024-03-08T10:26:20;5.00;;;1.95;;
77287;SDS011;66345;42.694;23.346;2024-03-08T10:28:50;5.68;;;2.00;;
77287;SDS011;66345;42.694;23.346;2024-03-08T10:31:18;6.65;;;3.58;;
77287;SDS011;66345;42.694;23.346;2024-03-08T10:33:45;4.03;;;2.03;;
77287;SDS011;66345;42.694;23.346;2024-03-08T10:36:11;4.10;;;2.00;;
77287;SDS011;66345;42.694;23.346;2024-03-08T10:38:39;3.95;;;1.73;;
77287;SDS011;66345;42.694;23.346;2024-03-08T10:41:09;3.40;;;1.50;;
77287;SDS011;66345;42.694;23.346;2024-03-08T10:43:46;4.18;;;1.83;;
77287;SDS011;66345;42.694;23.346;2024-03-08T10:49:18;3.10;;;1.35;;
77287;SDS011;66345;42.694;23.346;2024-03-08T10:51:49;4.03;;;1.40;;
77287;SDS011;66345;42.694;23.346;2024-03-08T10:54:16;3.78;;;1.30;;
77287;SDS011;66345;42.694;23.346;2024-03-08T10:56:44;3.47;;;1.38;;
77287;SDS011;66345;42.694;23.346;2024-03-08T10:59:13;3.88;;;1.38;;
77287;SDS011;66345;42.694;23.346;2024-03-08T11:01:39;2.92;;;1.20;;
77287;SDS011;66345;42.694;23.346;2024-03-08T11:04:05;2.97;;;1.10;;
77287;SDS011;66345;42.694;23.346;2024-03-08T11:09:03;3.35;;;1.00;;
77287;SDS011;66345;42.694;23.346;2024-03-08T11:11:47;3.53;;;1.00;;
77287;SDS011;66345;42.694;23.346;2024-03-08T11:17:09;2.95;;;1.00;;
77287;SDS011;66345;42.694;23.346;2024-03-08T11:19:35;4.83;;;1.00;;
77287;SDS011;66345;42.694;23.346;2024-03-08T11:22:01;2.67;;;0.90;;
77287;SDS011;66345;42.694;23.346;2024-03-08T11:24:28;3.63;;;0.93;;
77287;SDS011;66345;42.694;23.346;2024-03-08T11:27:03;2.65;;;0.90;;
77287;SDS011;66345;42.694;23.346;2024-03-08T11:34:37;3.10;;;1.17;;
77287;SDS011;66345;42.694;23.346;2024-03-08T11:37:05;5.07;;;1.10;;
77287;SDS011;66345;42.694;23.346;2024-03-08T11:39:39;2.63;;;0.90;;
77287;SDS011;66345;42.694;23.346;2024-03-08T11:42:14;2.80;;;0.80;;
77287;SDS011;66345;42.694;23.346;2024-03-08T11:44:42;3.35;;;0.98;;
77287;SDS011;66345;42.694;23.346;2024-03-08T11:47:12;2.50;;;0.80;;
77287;SDS011;66345;42.694;23.346;2024-03-08T11:49:38;4.13;;;1.50;;
77287;SDS011;66345;42.694;23.346;2024-03-08T11:52:09;3.78;;;1.00;;
77287;SDS011;66345;42.694;23.346;2024-03-08T11:54:41;3.42;;;1.30;;
77287;SDS011;66345;42.694;23.346;2024-03-08T11:57:12;3.60;;;0.90;;
77287;SDS011;66345;42.694;23.346;2024-03-08T11:59:38;2.70;;;0.77;;
77287;SDS011;66345;42.694;23.346;2024-03-08T12:02:06;3.20;;;0.77;;
77287;SDS011;66345;42.694;23.346;2024-03-08T12:04:36;3.67;;;1.08;;
77287;SDS011;66345;42.694;23.346;2024-03-08T12:07:02;2.47;;;0.88;;
77287;SDS011;66345;42.694;23.346;2024-03-08T12:09:33;3.17;;;0.90;;
77287;SDS011;66345;42.694;23.346;2024-03-08T12:12:01;2.97;;;0.80;;
77287;SDS011;66345;42.694;23.346;2024-03-08T12:14:29;2.47;;;0.85;;
77287;SDS011;66345;42.694;23.346;2024-03-08T12:16:57;2.92;;;0.80;;
77287;SDS011;66345;42.694;23.346;2024-03-08T12:19:22;3.22;;;0.90;;
77287;SDS011;66345;42.694;23.346;2024-03-08T12:21:48;3.50;;;1.13;;
77287;SDS011;66345;42.694;23.346;2024-03-08T12:24:15;3.03;;;1.07;;
77287;SDS011;66345;42.694;23.346;2024-03-08T12:26:44;4.07;;;1.30;;
77287;SDS011;66345;42.694;23.346;2024-03-08T12:29:28;5.22;;;1.30;;
77287;SDS011;66345;42.694;23.346;2024-03-08T12:31:56;5.75;;;1.52;;
77287;SDS011;66345;42.694;23.346;2024-03-08T12:34:25;2.78;;;1.00;;
77287;SDS011;66345;42.694;23.346;2024-03-08T12:36:57;2.90;;;1.07;;
77287;SDS011;66345;42.694;23.346;2024-03-08T12:39:23;3.00;;;1.10;;
77287;SDS011;66345;42.694;23.346;2024-03-08T12:41:52;2.90;;;1.00;;
77287;SDS011;66345;42.694;23.346;2024-03-08T12:44:19;3.45;;;0.90;;
77287;SDS011;66345;42.694;23.346;2024-03-08T12:46:46;3.28;;;0.93;;
77287;SDS011;66345;42.694;23.346;2024-03-08T12:49:13;3.43;;;0.90;;
77287;SDS011;66345;42.694;23.346;2024-03-08T12:51:45;3.00;;;1.10;;
77287;SDS011;66345;42.694;23.346;2024-03-08T12:54:11;2.70;;;0.75;;
77287;SDS011;66345;42.694;23.346;2024-03-08T12:56:37;3.35;;;1.10;;
77287;SDS011;66345;42.694;23.346;2024-03-08T12:59:05;3.05;;;0.90;;
77287;SDS011;66345;42.694;23.346;2024-03-08T13:01:32;2.50;;;0.70;;
77287;SDS011;66345;42.694;23.346;2024-03-08T13:03:58;2.40;;;0.68;;
77287;SDS011;66345;42.694;23.346;2024-03-08T13:06:25;3.45;;;1.00;;
77287;SDS011;66345;42.694;23.346;2024-03-08T13:08:51;2.87;;;0.83;;
77287;SDS011;66345;42.694;23.346;2024-03-08T13:11:17;5.85;;;1.05;;
77287;SDS011;66345;42.694;23.346;2024-03-08T13:13:44;2.78;;;0.88;;
77287;SDS011;66345;42.694;23.346;2024-03-08T13:16:10;2.60;;;0.90;;
77287;SDS011;66345;42.694;23.346;2024-03-08T13:18:39;4.13;;;1.00;;
77287;SDS011;66345;42.694;23.346;2024-03-08T13:21:07;2.92;;;0.80;;
77287;SDS011;66345;42.694;23.346;2024-03-08T13:23:34;3.65;;;1.30;;
77287;SDS011;66345;42.694;23.346;2024-03-08T13:26:07;6.63;;;1.25;;
77287;SDS011;66345;42.694;23.346;2024-03-08T13:28:34;3.67;;;1.08;;
77287;SDS011;66345;42.694;23.346;2024-03-08T13:31:05;2.73;;;0.90;;
77287;SDS011;66345;42.694;23.346;2024-03-08T13:33:32;2.65;;;0.80;;
77287;SDS011;66345;42.694;23.346;2024-03-08T13:36:00;3.35;;;1.10;;
77287;SDS011;66345;42.694;23.346;2024-03-08T13:38:27;2.90;;;0.90;;
77287;SDS011;66345;42.694;23.346;2024-03-08T13:40:52;3.70;;;1.07;;
77287;SDS011;66345;42.694;23.346;2024-03-08T13:43:18;2.72;;;1.00;;
77287;SDS011;66345;42.694;23.346;2024-03-08T13:45:44;3.10;;;1.10;;
77287;SDS011;66345;42.694;23.346;2024-03-08T13:48:10;3.30;;;0.98;;
77287;SDS011;66345;42.694;23.346;2024-03-08T13:50:38;4.70;;;1.00;;
77287;SDS011;66345;42.694;23.346;2024-03-08T13:53:04;3.47;;;0.80;;
77287;SDS011;66345;42.694;23.346;2024-03-08T13:55:30;4.35;;;0.90;;
77287;SDS011;66345;42.694;23.346;2024-03-08T13:57:56;3.50;;;1.00;;
77287;SDS011;66345;42.694;23.346;2024-03-08T14:00:25;2.92;;;0.98;;
77287;SDS011;66345;42.694;23.346;2024-03-08T14:02:56;3.00;;;0.93;;
77287;SDS011;66345;42.694;23.346;2024-03-08T14:05:21;4.40;;;1.00;;
77287;SDS011;66345;42.694;23.346;2024-03-08T14:07:47;3.65;;;1.10;;
77287;SDS011;66345;42.694;23.346;2024-03-08T14:10:14;3.70;;;1.60;;
77287;SDS011;66345;42.694;23.346;2024-03-08T14:12:40;3.63;;;1.27;;
77287;SDS011;66345;42.694;23.346;2024-03-08T14:15:08;4.55;;;1.30;;
77287;SDS011;66345;42.694;23.346;2024-03-08T14:17:33;5.00;;;1.50;;
77287;SDS011;66345;42.694;23.346;2024-03-08T14:19:59;4.43;;;1.30;;
77287;SDS011;66345;42.694;23.346;2024-03-08T14:22:29;4.65;;;1.70;;
77287;SDS011;66345;42.694;23.346;2024-03-08T14:24:56;5.35;;;1.70;;
77287;SDS011;66345;42.694;23.346;2024-03-08T14:27:22;4.27;;;1.60;;
77287;SDS011;66345;42.694;23.346;2024-03-08T14:29:47;3.53;;;1.17;;
77287;SDS011;66345;42.694;23.346;2024-03-08T14:32:13;2.93;;;1.00;;
77287;SDS011;66345;42.694;23.346;2024-03-08T14:34:39;3.10;;;1.10;;
77287;SDS011;66345;42.694;23.346;2024-03-08T14:37:05;3.50;;;1.50;;
77287;SDS011;66345;42.694;23.346;2024-03-08T14:39:36;5.20;;;1.70;;
77287;SDS011;66345;42.694;23.346;2024-03-08T14:42:02;3.72;;;1.58;;
77287;SDS011;66345;42.694;23.346;2024-03-08T14:44:28;4.20;;;1.30;;
77287;SDS011;66345;42.694;23.346;2024-03-08T14:46:58;4.18;;;1.48;;
77287;SDS011;66345;42.694;23.346;2024-03-08T14:49:24;5.57;;;1.55;;